createdAt,value
2022-07-25T00:01:53.032Z,4.67
2022-07-25T00:04:20.534Z,4.67
2022-07-25T00:06:49.669Z,4.00
2022-07-25T00:09:17.134Z,4.00
2022-07-25T00:11:44.596Z,4.33
2022-07-25T00:14:12.048Z,3.50
2022-07-25T00:16:40.962Z,3.67
2022-07-25T00:19:08.435Z,4.67
2022-07-25T00:21:35.868Z,4.75
2022-07-25T00:24:03.801Z,4.75
2022-07-25T00:26:33.527Z,3.75
2022-07-25T00:29:04.162Z,4.75
2022-07-25T00:31:31.652Z,4.00
2022-07-25T00:34:00.456Z,4.00
2022-07-25T00:36:27.980Z,4.25
2022-07-25T00:38:55.444Z,3.50
2022-07-25T00:41:22.942Z,4.00
2022-07-25T00:43:50.385Z,3.75
2022-07-25T00:46:19.005Z,4.00
2022-07-25T00:48:46.755Z,4.50
2022-07-25T00:51:15.569Z,3.75
2022-07-25T00:53:43.041Z,3.00
2022-07-25T00:56:10.490Z,4.33
2022-07-25T00:58:38.239Z,3.00
2022-07-25T01:01:05.977Z,3.67
2022-07-25T01:03:33.483Z,3.00
2022-07-25T01:06:00.942Z,4.00
2022-07-25T01:08:29.713Z,3.33
2022-07-25T01:10:57.163Z,3.67
2022-07-25T01:13:24.614Z,3.67
2022-07-25T01:15:52.091Z,3.00
2022-07-25T01:18:19.559Z,3.33
2022-07-25T01:20:48.526Z,3.33
2022-07-25T01:23:15.982Z,2.67
2022-07-25T01:25:43.548Z,3.00
2022-07-25T01:28:11.008Z,3.00
2022-07-25T01:30:38.523Z,4.00
2022-07-25T01:33:07.007Z,2.00
2022-07-25T01:35:36.224Z,3.67
2022-07-25T01:38:06.739Z,3.33
2022-07-25T01:40:34.189Z,4.00
2022-07-25T01:43:01.627Z,3.33
2022-07-25T01:45:29.098Z,4.33
2022-07-25T01:47:56.575Z,2.50
2022-07-25T01:50:24.197Z,3.75
2022-07-25T01:52:51.646Z,2.25
2022-07-25T01:55:20.398Z,3.67
2022-07-25T01:57:49.729Z,2.25
2022-07-25T02:00:17.735Z,2.33
2022-07-25T02:02:45.368Z,3.00
2022-07-25T02:05:13.654Z,3.00
2022-07-25T02:07:41.106Z,3.00
2022-07-25T02:10:09.131Z,4.00
2022-07-25T02:12:37.860Z,3.33
2022-07-25T02:15:06.096Z,4.00
2022-07-25T02:17:33.574Z,2.50
2022-07-25T02:20:01.014Z,3.00
2022-07-25T02:22:28.452Z,3.25
2022-07-25T02:24:55.902Z,2.33
2022-07-25T02:27:23.356Z,4.00
2022-07-25T02:29:52.083Z,2.33
2022-07-25T02:32:19.850Z,3.33
2022-07-25T02:34:47.294Z,3.00
2022-07-25T02:37:14.831Z,2.67
2022-07-25T02:39:42.272Z,3.33
2022-07-25T02:42:09.737Z,3.00
2022-07-25T02:44:37.181Z,4.00
2022-07-25T02:47:05.970Z,4.00
2022-07-25T02:49:33.448Z,3.00
2022-07-25T02:52:00.895Z,3.50
2022-07-25T02:54:28.394Z,4.00
2022-07-25T02:56:56.207Z,3.00
2022-07-25T02:59:23.649Z,2.33
2022-07-25T03:01:51.208Z,2.33
2022-07-25T03:04:20.059Z,2.67
2022-07-25T03:06:47.565Z,3.33
2022-07-25T03:09:14.999Z,3.00
2022-07-25T03:11:42.470Z,3.67
2022-07-25T03:14:10.251Z,2.33
2022-07-25T03:16:37.914Z,3.00
2022-07-25T03:19:10.155Z,3.33
2022-07-25T03:21:39.194Z,4.00
2022-07-25T03:24:07.489Z,2.00
2022-07-25T03:26:35.149Z,3.00
2022-07-25T03:29:02.604Z,4.33
2022-07-25T03:31:30.155Z,4.67
2022-07-25T03:33:57.701Z,3.33
2022-07-25T03:36:25.160Z,2.67
2022-07-25T03:38:55.815Z,3.00
2022-07-25T03:41:23.280Z,2.33
2022-07-25T03:43:50.745Z,4.00
2022-07-25T03:46:18.229Z,3.00
2022-07-25T03:48:45.782Z,4.00
2022-07-25T03:51:13.272Z,2.67
2022-07-25T03:53:54.739Z,2.33
2022-07-25T03:56:23.581Z,3.67
2022-07-25T03:58:51.483Z,3.00
2022-07-25T04:01:18.964Z,2.33
2022-07-25T04:03:46.812Z,4.00
2022-07-25T04:06:14.247Z,3.00
2022-07-25T04:08:41.687Z,3.33
2022-07-25T04:11:09.142Z,3.67
2022-07-25T04:13:37.929Z,2.67
2022-07-25T04:16:07.067Z,4.00
2022-07-25T04:18:35.919Z,3.00
2022-07-25T04:21:04.077Z,3.00
2022-07-25T04:23:31.640Z,0.33
2022-07-25T04:25:59.083Z,3.00
2022-07-25T04:28:26.551Z,2.00
2022-07-25T04:30:55.323Z,3.00
2022-07-25T04:33:22.749Z,3.00
2022-07-25T04:35:50.746Z,3.33
2022-07-25T04:38:18.258Z,4.00
2022-07-25T04:40:45.736Z,3.00
2022-07-25T04:43:13.194Z,3.67
2022-07-25T04:45:40.771Z,3.00
2022-07-25T04:48:09.579Z,4.67
2022-07-25T04:50:37.025Z,3.00
2022-07-25T04:53:04.501Z,2.00
2022-07-25T04:55:33.233Z,4.00
2022-07-25T04:58:00.676Z,4.00
2022-07-25T05:00:28.224Z,3.00
2022-07-25T05:02:55.710Z,4.00
2022-07-25T05:05:24.456Z,4.33
2022-07-25T05:07:51.944Z,3.00
2022-07-25T05:10:19.388Z,4.00
2022-07-25T05:12:46.884Z,3.67
2022-07-25T05:15:14.467Z,3.00
2022-07-25T05:17:41.930Z,4.67
2022-07-25T05:20:10.623Z,3.00
2022-07-25T05:22:39.356Z,3.00
2022-07-25T05:25:08.338Z,4.00
2022-07-25T05:27:35.778Z,3.00
2022-07-25T05:30:03.266Z,4.00
2022-07-25T05:32:31.105Z,4.00
2022-07-25T05:34:58.557Z,5.00
2022-07-25T05:37:26.078Z,3.00
2022-07-25T05:39:54.904Z,3.50
2022-07-25T05:42:22.390Z,4.75
2022-07-25T05:44:49.833Z,4.25
2022-07-25T05:47:17.260Z,4.75
2022-07-25T05:49:44.735Z,3.75
2022-07-25T05:52:13.278Z,5.00
2022-07-25T05:54:41.213Z,5.00
2022-07-25T05:57:09.960Z,5.00
2022-07-25T05:59:37.566Z,4.50
2022-07-25T06:02:05.142Z,4.50
2022-07-25T06:04:32.766Z,5.75
2022-07-25T06:07:00.225Z,5.00
2022-07-25T06:09:27.684Z,5.00
2022-07-25T06:12:00.359Z,6.00
2022-07-25T06:14:29.731Z,4.75
2022-07-25T06:16:57.197Z,6.00
2022-07-25T06:19:24.667Z,5.75
2022-07-25T06:21:53.064Z,7.00
2022-07-25T06:24:20.527Z,6.00
2022-07-25T06:26:47.962Z,7.00
2022-07-25T06:29:15.406Z,4.50
2022-07-25T06:31:47.066Z,4.75
2022-07-25T06:34:14.955Z,6.00
2022-07-25T06:36:42.386Z,5.75
2022-07-25T06:39:09.843Z,6.50
2022-07-25T06:41:37.773Z,7.00
2022-07-25T06:44:05.992Z,7.00
2022-07-25T06:46:33.650Z,8.00
2022-07-25T06:49:03.001Z,6.75
2022-07-25T06:51:30.497Z,7.25
2022-07-25T06:53:57.984Z,8.50
2022-07-25T06:56:25.815Z,8.00
2022-07-25T06:58:54.667Z,7.00
2022-07-25T07:01:22.359Z,8.00
2022-07-25T07:03:49.951Z,2.50
2022-07-25T07:06:18.813Z,7.75
2022-07-25T07:08:46.300Z,9.00
2022-07-25T07:11:15.276Z,9.00
2022-07-25T07:13:42.743Z,7.50
2022-07-25T07:16:10.669Z,10.00
2022-07-25T07:18:38.640Z,8.00
2022-07-25T07:21:06.720Z,8.50
2022-07-25T07:23:36.990Z,8.25
2022-07-25T07:26:07.574Z,9.25
2022-07-25T07:28:35.618Z,9.00
2022-07-25T07:31:18.697Z,8.67
2022-07-25T07:33:46.794Z,8.33
2022-07-25T07:36:14.427Z,9.00
2022-07-25T07:38:44.480Z,8.33
2022-07-25T07:41:12.686Z,8.33
2022-07-25T07:43:40.144Z,7.00
2022-07-25T07:46:07.682Z,9.00
2022-07-25T07:48:35.252Z,9.33
2022-07-25T07:51:02.913Z,8.67
2022-07-25T07:53:44.522Z,10.33
2022-07-25T07:56:13.242Z,10.50
2022-07-25T07:58:40.743Z,9.25
2022-07-25T08:01:08.203Z,9.50
2022-07-25T08:03:36.057Z,9.75
2022-07-25T08:06:03.578Z,9.00
2022-07-25T08:08:31.682Z,9.75
2022-07-25T08:10:59.787Z,9.00
2022-07-25T08:13:30.304Z,10.00
2022-07-25T08:15:59.312Z,9.25
2022-07-25T08:18:27.145Z,10.75
2022-07-25T08:20:54.634Z,10.50
2022-07-25T08:23:22.338Z,10.75
2022-07-25T08:25:49.917Z,11.50
2022-07-25T08:28:17.389Z,11.50
2022-07-25T08:30:46.322Z,11.00
2022-07-25T08:33:15.916Z,10.75
2022-07-25T08:35:47.021Z,12.00
2022-07-25T08:38:14.538Z,12.50
2022-07-25T08:40:41.986Z,11.50
2022-07-25T08:43:11.983Z,13.00
2022-07-25T08:45:39.428Z,11.75
2022-07-25T08:48:08.203Z,13.75
2022-07-25T08:50:35.645Z,13.50
2022-07-25T08:53:31.454Z,6.25
2022-07-25T08:55:50.618Z,12.00
2022-07-25T08:58:18.459Z,13.75
2022-07-25T09:00:45.972Z,12.00
2022-07-25T09:03:14.758Z,12.25
2022-07-25T09:05:43.754Z,14.25
2022-07-25T09:08:11.978Z,13.25
2022-07-25T09:10:39.875Z,13.00
2022-07-25T09:13:10.993Z,14.75
2022-07-25T09:15:39.799Z,12.75
2022-07-25T09:18:10.842Z,13.75
2022-07-25T09:20:41.113Z,14.50
2022-07-25T09:23:08.575Z,12.75
2022-07-25T09:25:36.141Z,14.25
2022-07-25T09:28:16.836Z,14.75
2022-07-25T09:30:54.770Z,15.00
2022-07-25T09:33:22.530Z,13.25
2022-07-25T09:35:51.384Z,14.00
2022-07-25T09:38:18.996Z,15.00
2022-07-25T09:40:55.070Z,15.75
2022-07-25T09:43:23.420Z,15.25
2022-07-25T09:45:51.608Z,14.25
2022-07-25T09:48:19.455Z,15.75
2022-07-25T09:50:46.894Z,15.25
2022-07-25T09:53:15.617Z,15.25
2022-07-25T09:55:43.287Z,15.00
2022-07-25T09:58:10.761Z,13.75
2022-07-25T10:00:38.215Z,14.50
2022-07-25T10:03:15.498Z,16.25
2022-07-25T10:06:01.092Z,14.50
2022-07-25T10:08:30.051Z,15.50
2022-07-25T10:10:58.223Z,15.33
2022-07-25T10:13:34.212Z,8.50
2022-07-25T10:16:01.944Z,16.00
2022-07-25T10:18:30.481Z,16.00
2022-07-25T10:21:24.426Z,17.50
2022-07-25T10:24:04.873Z,15.25
2022-07-25T10:26:32.845Z,15.50
2022-07-25T10:29:01.653Z,13.50
2022-07-25T10:31:35.689Z,14.50
2022-07-25T10:34:05.542Z,16.75
2022-07-25T10:36:42.977Z,16.00
2022-07-25T10:39:13.260Z,18.25
2022-07-25T10:41:40.851Z,16.00
2022-07-25T10:44:12.684Z,16.25
2022-07-25T10:46:40.231Z,17.00
2022-07-25T10:49:08.906Z,18.75
2022-07-25T10:51:41.676Z,16.00
2022-07-25T10:54:17.317Z,17.50
2022-07-25T10:56:55.377Z,15.75
2022-07-25T10:59:33.415Z,15.25
2022-07-25T11:02:01.144Z,19.00
2022-07-25T11:04:28.824Z,18.25
2022-07-25T11:06:56.262Z,18.50
2022-07-25T11:09:27.586Z,17.00
2022-07-25T11:11:56.372Z,17.00
2022-07-25T11:14:24.852Z,17.25
2022-07-25T11:16:53.146Z,17.25
2022-07-25T11:19:21.917Z,17.75
2022-07-25T11:21:50.481Z,17.25
2022-07-25T11:24:18.410Z,16.00
2022-07-25T11:26:48.553Z,18.00
2022-07-25T11:29:20.205Z,16.00
2022-07-25T11:31:55.255Z,14.75
2022-07-25T11:34:24.097Z,16.25
2022-07-25T11:36:52.060Z,17.00
2022-07-25T11:39:19.773Z,16.25
2022-07-25T11:41:48.572Z,12.25
2022-07-25T11:44:16.070Z,12.50
2022-07-25T11:46:44.824Z,16.75
2022-07-25T11:49:12.894Z,16.25
2022-07-25T11:51:41.731Z,17.25
2022-07-25T11:54:09.802Z,16.00
2022-07-25T11:56:42.820Z,16.00
2022-07-25T11:59:12.407Z,18.50
2022-07-25T12:01:41.231Z,15.00
2022-07-25T12:04:10.334Z,17.00
2022-07-25T12:06:37.789Z,17.50
2022-07-25T12:09:18.580Z,15.50
2022-07-25T12:11:47.124Z,15.25
2022-07-25T12:14:15.894Z,17.00
2022-07-25T12:16:43.421Z,16.25
2022-07-25T12:19:18.497Z,15.50
2022-07-25T12:21:45.940Z,15.50
2022-07-25T12:24:13.549Z,17.00
2022-07-25T12:26:40.977Z,17.00
2022-07-25T12:29:08.827Z,15.00
2022-07-25T12:31:37.897Z,15.75
2022-07-25T12:34:05.340Z,15.50
2022-07-25T12:36:34.312Z,16.00
2022-07-25T12:39:01.863Z,13.75
2022-07-25T12:41:29.313Z,17.00
2022-07-25T12:43:58.885Z,14.75
2022-07-25T12:46:26.375Z,14.50
2022-07-25T12:48:55.183Z,16.25
2022-07-25T12:51:22.718Z,14.50
2022-07-25T12:53:50.151Z,16.50
2022-07-25T12:56:17.759Z,15.75
2022-07-25T12:58:45.210Z,17.25
2022-07-25T13:01:13.685Z,15.50
2022-07-25T13:03:41.527Z,14.75
2022-07-25T13:06:10.439Z,16.25
2022-07-25T13:08:37.931Z,14.00
2022-07-25T13:11:05.398Z,14.50
2022-07-25T13:13:32.837Z,15.25
2022-07-25T13:16:00.324Z,15.25
2022-07-25T13:18:27.772Z,15.50
2022-07-25T13:20:55.242Z,14.75
2022-07-25T13:23:23.981Z,16.25
2022-07-25T13:25:51.416Z,15.75
2022-07-25T13:28:18.865Z,10.25
2022-07-25T13:30:46.310Z,15.00
2022-07-25T13:33:14.881Z,15.00
2022-07-25T13:35:42.324Z,15.00
2022-07-25T13:38:10.359Z,12.00
2022-07-25T13:40:41.855Z,14.33
2022-07-25T13:43:09.329Z,15.33
2022-07-25T13:45:36.871Z,15.00
2022-07-25T13:48:29.609Z,12.00
2022-07-25T13:50:52.120Z,14.67
2022-07-25T13:53:19.680Z,14.67
2022-07-25T13:55:48.426Z,14.33
2022-07-25T13:58:15.872Z,15.00
2022-07-25T14:00:43.493Z,13.33
2022-07-25T14:03:11.094Z,14.67
2022-07-25T14:05:39.446Z,16.00
2022-07-25T14:08:07.512Z,15.00
2022-07-25T14:10:35.178Z,14.00
2022-07-25T14:13:04.014Z,15.50
2022-07-25T14:15:31.483Z,14.00
2022-07-25T14:17:58.936Z,15.67
2022-07-25T14:20:26.528Z,15.33
2022-07-25T14:22:53.987Z,14.67
2022-07-25T14:25:21.468Z,15.50
2022-07-25T14:27:49.011Z,14.25
2022-07-25T14:30:17.849Z,16.00
2022-07-25T14:32:45.303Z,14.75
2022-07-25T14:35:13.175Z,13.50
2022-07-25T14:37:40.670Z,16.25
2022-07-25T14:40:10.939Z,14.25
2022-07-25T14:42:40.155Z,13.50
2022-07-25T14:45:08.220Z,14.50
2022-07-25T14:47:37.042Z,15.50
2022-07-25T14:50:04.769Z,15.75
2022-07-25T14:52:32.226Z,15.25
2022-07-25T14:54:59.723Z,15.75
2022-07-25T14:57:27.163Z,15.00
2022-07-25T14:59:54.609Z,14.75
2022-07-25T15:02:22.215Z,14.00
2022-07-25T15:04:51.021Z,14.00
2022-07-25T15:07:18.542Z,15.25
2022-07-25T15:09:46.055Z,15.25
2022-07-25T15:12:16.627Z,15.25
2022-07-25T15:14:44.839Z,15.25
2022-07-25T15:17:12.274Z,15.25
2022-07-25T15:19:39.746Z,15.00
2022-07-25T15:22:08.497Z,15.00
2022-07-25T15:25:06.414Z,15.75
2022-07-25T15:27:23.382Z,14.00
2022-07-25T15:29:51.847Z,12.50
2022-07-25T15:32:20.377Z,14.25
2022-07-25T15:34:47.853Z,13.25
2022-07-25T15:37:16.621Z,14.25
2022-07-25T15:39:44.988Z,15.25
2022-07-25T15:42:12.450Z,15.25
2022-07-25T15:44:39.919Z,14.50
2022-07-25T15:47:07.582Z,14.25
2022-07-25T15:49:35.135Z,16.25
2022-07-25T15:52:02.569Z,14.00
2022-07-25T15:54:31.355Z,14.25
2022-07-25T15:56:58.845Z,14.25
2022-07-25T15:59:26.375Z,15.00
2022-07-25T16:01:53.885Z,16.00
2022-07-25T16:04:21.413Z,14.50
2022-07-25T16:06:49.742Z,14.75
2022-07-25T16:09:18.142Z,15.75
2022-07-25T16:11:46.972Z,16.33
2022-07-25T16:14:14.472Z,16.50
2022-07-25T16:16:44.053Z,17.75
2022-07-25T16:19:11.557Z,15.33
2022-07-25T16:21:39.872Z,17.00
2022-07-25T16:24:09.318Z,17.33
2022-07-25T16:26:36.788Z,16.33
2022-07-25T16:29:05.770Z,16.33
2022-07-25T16:31:33.323Z,15.33
2022-07-25T16:34:00.831Z,13.67
2022-07-25T16:36:29.133Z,15.33
2022-07-25T16:38:56.578Z,15.00
2022-07-25T16:41:24.021Z,15.67
2022-07-25T16:43:51.467Z,13.00
2022-07-25T16:46:21.993Z,15.00
2022-07-25T16:48:52.066Z,14.67
2022-07-25T16:51:19.622Z,16.67
2022-07-25T16:53:47.308Z,17.00
2022-07-25T16:56:14.779Z,13.33
2022-07-25T16:58:42.705Z,15.00
2022-07-25T17:01:10.155Z,14.33
2022-07-25T17:03:38.874Z,15.00
2022-07-25T17:06:06.797Z,14.33
2022-07-25T17:08:34.309Z,14.00
2022-07-25T17:11:02.123Z,14.00
2022-07-25T17:13:29.571Z,12.00
2022-07-25T17:15:57.147Z,13.75
2022-07-25T17:18:24.657Z,12.50
2022-07-25T17:20:54.603Z,14.00
2022-07-25T17:23:22.081Z,13.00
2022-07-25T17:25:50.843Z,13.25
2022-07-25T17:28:18.714Z,12.50
2022-07-25T17:30:46.519Z,13.50
2022-07-25T17:33:14.050Z,14.67
2022-07-25T17:35:41.514Z,13.00
2022-07-25T17:38:11.563Z,13.00
2022-07-25T17:40:41.894Z,12.50
2022-07-25T17:43:09.326Z,13.75
2022-07-25T17:45:36.783Z,12.75
2022-07-25T17:48:04.431Z,13.50
2022-07-25T17:50:31.857Z,14.00
2022-07-25T17:52:59.967Z,13.25
2022-07-25T17:55:29.040Z,12.25
2022-07-25T17:57:56.671Z,14.00
2022-07-25T18:00:24.225Z,12.50
2022-07-25T18:02:51.774Z,12.50
2022-07-25T18:05:19.347Z,12.50
2022-07-25T18:07:49.512Z,12.25
2022-07-25T18:10:17.491Z,12.00
2022-07-25T18:15:14.803Z,10.67
2022-07-25T18:17:42.717Z,10.33
2022-07-25T18:20:11.260Z,11.33
2022-07-25T18:22:40.943Z,11.67
2022-07-25T18:25:09.410Z,9.00
2022-07-25T18:27:36.873Z,11.25
2022-07-25T18:30:07.904Z,9.00
2022-07-25T18:32:35.367Z,9.67
2022-07-25T18:35:02.937Z,10.25
2022-07-25T18:37:30.381Z,8.75
2022-07-25T18:39:57.988Z,10.00
2022-07-25T18:42:29.706Z,9.00
2022-07-25T18:44:57.650Z,8.00
2022-07-25T18:47:32.118Z,10.33
2022-07-25T18:50:00.031Z,11.00
2022-07-25T18:52:29.007Z,9.50
2022-07-25T18:54:56.495Z,10.00
2022-07-25T18:57:24.054Z,9.75
2022-07-25T18:59:51.509Z,9.50
2022-07-25T19:02:18.955Z,8.00
2022-07-25T19:04:47.766Z,10.25
2022-07-25T19:07:15.333Z,10.00
2022-07-25T19:09:42.831Z,10.25
2022-07-25T19:12:11.974Z,10.00
2022-07-25T19:14:39.416Z,8.75
2022-07-25T19:17:06.900Z,9.00
2022-07-25T19:19:34.436Z,10.00
2022-07-25T19:22:03.175Z,10.50
2022-07-25T19:24:31.330Z,10.25
2022-07-25T19:26:58.933Z,11.75
2022-07-25T19:29:26.685Z,8.75
2022-07-25T19:31:54.202Z,10.75
2022-07-25T19:34:21.755Z,10.00
2022-07-25T19:36:49.208Z,10.67
2022-07-25T19:39:18.352Z,9.33
2022-07-25T19:41:47.198Z,10.00
2022-07-25T19:44:14.926Z,9.00
2022-07-25T19:46:42.436Z,9.75
2022-07-25T19:49:10.094Z,11.00
2022-07-25T19:51:37.593Z,9.25
2022-07-25T19:54:08.010Z,10.00
2022-07-25T19:56:37.002Z,10.00
2022-07-25T19:59:04.490Z,10.25
2022-07-25T20:01:34.156Z,10.25
2022-07-25T20:04:01.907Z,10.50
2022-07-25T20:06:29.349Z,10.50
2022-07-25T20:08:56.870Z,10.00
2022-07-25T20:11:24.354Z,9.50
2022-07-25T20:13:53.120Z,9.33
2022-07-25T20:16:20.648Z,10.00
2022-07-25T20:18:48.132Z,7.75
2022-07-25T20:21:17.867Z,10.50
2022-07-25T20:23:45.333Z,11.25
2022-07-25T20:26:12.804Z,10.00
2022-07-25T20:28:40.270Z,8.33
2022-07-25T20:31:09.147Z,10.33
2022-07-25T20:33:36.693Z,11.00
2022-07-25T20:36:04.409Z,9.00
2022-07-25T20:38:32.287Z,10.67
2022-07-25T20:40:59.750Z,10.00
2022-07-25T20:43:28.475Z,9.75
2022-07-25T20:45:56.090Z,10.00
2022-07-25T20:48:24.985Z,10.00
2022-07-25T20:50:52.546Z,10.33
2022-07-25T20:53:20.041Z,9.67
2022-07-25T20:55:47.545Z,9.50
2022-07-25T20:58:14.989Z,10.00
2022-07-25T21:00:42.442Z,10.67
2022-07-25T21:03:09.897Z,8.67
2022-07-25T21:05:39.387Z,9.00
2022-07-25T21:08:07.653Z,8.67
2022-07-25T21:10:35.132Z,11.33
2022-07-25T21:13:02.608Z,9.00
2022-07-25T21:15:30.757Z,8.75
2022-07-25T21:17:58.214Z,8.50
2022-07-25T21:20:25.644Z,10.50
2022-07-25T21:22:56.183Z,10.00
2022-07-25T21:25:23.659Z,9.00
2022-07-25T21:27:51.217Z,9.25
2022-07-25T21:30:18.725Z,9.00
2022-07-25T21:32:46.181Z,10.00
2022-07-25T21:35:13.655Z,7.50
2022-07-25T21:37:41.213Z,10.00
2022-07-25T21:40:11.049Z,8.75
2022-07-25T21:42:38.501Z,10.00
2022-07-25T21:45:07.110Z,9.00
2022-07-25T21:47:34.562Z,10.00
2022-07-25T21:50:24.940Z,9.50
2022-07-25T21:52:52.923Z,9.25
2022-07-25T21:55:21.854Z,10.00
2022-07-25T21:57:49.475Z,10.00
2022-07-25T22:00:17.170Z,8.00
2022-07-25T22:02:44.807Z,11.00
2022-07-25T22:05:12.237Z,10.00
2022-07-25T22:07:39.707Z,10.33
2022-07-25T22:10:08.069Z,9.67
2022-07-25T22:12:36.840Z,10.00
2022-07-25T22:15:04.810Z,9.33
2022-07-25T22:17:48.407Z,7.75
2022-07-25T22:20:17.259Z,10.00
2022-07-25T22:22:44.693Z,9.00
2022-07-25T22:25:12.157Z,7.25
2022-07-25T22:27:40.913Z,10.75
2022-07-25T22:30:12.324Z,9.00
2022-07-25T22:32:43.772Z,9.67
2022-07-25T22:35:11.217Z,9.67
2022-07-25T22:37:38.663Z,10.00
2022-07-25T22:40:07.246Z,7.75
2022-07-25T22:42:34.692Z,8.50
2022-07-25T22:45:03.452Z,11.00
2022-07-25T22:47:30.914Z,10.00
2022-07-25T22:49:58.409Z,9.67
2022-07-25T22:52:25.865Z,8.33
2022-07-25T22:54:53.310Z,10.00
2022-07-25T22:57:20.780Z,9.25
2022-07-25T22:59:49.207Z,8.50
2022-07-25T23:02:17.994Z,8.33
2022-07-25T23:04:45.458Z,9.00
2022-07-25T23:07:13.160Z,7.25
2022-07-25T23:09:40.635Z,9.00
2022-07-25T23:12:08.606Z,9.00
2022-07-25T23:14:36.080Z,9.00
2022-07-25T23:17:19.934Z,7.75
2022-07-25T23:19:50.160Z,8.67
2022-07-25T23:22:17.676Z,10.00
2022-07-25T23:24:45.161Z,8.50
2022-07-25T23:27:12.648Z,9.25
2022-07-25T23:29:40.096Z,8.25
2022-07-25T23:32:07.987Z,9.00
2022-07-25T23:34:35.475Z,8.25
2022-07-25T23:37:04.448Z,8.00
2022-07-25T23:39:32.430Z,7.33
2022-07-25T23:41:59.949Z,8.00
2022-07-25T23:44:27.455Z,10.00
2022-07-25T23:46:59.675Z,8.67
2022-07-25T23:49:29.092Z,9.25
2022-07-25T23:51:57.368Z,7.33
2022-07-25T23:54:26.129Z,8.00
2022-07-25T23:56:53.661Z,8.25
2022-07-25T23:59:21.232Z,8.00
